sensor_id;sensor_type;location;lat;lon;timestamp;pressure;altitude;pressure_sealevel;temperature;humidity
66689;BME280;53587;59.318;18.084;2022-08-21T00:01:52;101276.91;;;15.00;nan
66689;BME280;53587;59.318;18.084;2022-08-21T00:04:17;101278.75;;;17.35;nan
66689;BME280;53587;59.318;18.084;2022-08-21T00:06:42;101268.50;;;18.44;nan
66689;BME280;53587;59.318;18.084;2022-08-21T00:09:08;101282.06;;;16.53;nan
66689;BME280;53587;59.318;18.084;2022-08-21T00:11:34;101280.22;;;16.21;nan
66689;BME280;53587;59.318;18.084;2022-08-21T00:14:00;101276.84;;;18.13;nan
66689;BME280;53587;59.318;18.084;2022-08-21T00:16:25;101270.19;;;17.21;nan
66689;BME280;53587;59.318;18.084;2022-08-21T00:18:50;101280.28;;;14.62;nan
66689;BME280;53587;59.318;18.084;2022-08-21T00:21:15;101281.78;;;17.49;nan
66689;BME280;53587;59.318;18.084;2022-08-21T00:23:41;101271.28;;;18.39;nan
66689;BME280;53587;59.318;18.084;2022-08-21T00:26:07;101272.91;;;16.00;nan
66689;BME280;53587;59.318;18.084;2022-08-21T00:28:32;101274.88;;;16.52;nan
66689;BME280;53587;59.318;18.084;2022-08-21T00:30:58;101255.88;;;18.23;nan
66689;BME280;53587;59.318;18.084;2022-08-21T00:33:23;101257.00;;;17.49;nan
66689;BME280;53587;59.318;18.084;2022-08-21T00:35:49;101269.19;;;14.52;nan
66689;BME280;53587;59.318;18.084;2022-08-21T00:38:14;101265.50;;;17.27;nan
66689;BME280;53587;59.318;18.084;2022-08-21T00:40:46;101258.56;;;18.38;nan
66689;BME280;53587;59.318;18.084;2022-08-21T00:43:12;101258.22;;;16.21;nan
66689;BME280;53587;59.318;18.084;2022-08-21T00:45:38;101275.25;;;16.23;nan
66689;BME280;53587;59.318;18.084;2022-08-21T00:48:04;101269.66;;;18.12;nan
66689;BME280;53587;59.318;18.084;2022-08-21T00:50:30;101273.25;;;17.71;nan
66689;BME280;53587;59.318;18.084;2022-08-21T00:52:57;101272.25;;;14.56;nan
66689;BME280;53587;59.318;18.084;2022-08-21T00:55:22;101273.78;;;17.27;nan
66689;BME280;53587;59.318;18.084;2022-08-21T00:57:49;101265.44;;;18.51;nan
66689;BME280;53587;59.318;18.084;2022-08-21T01:00:17;101271.94;;;16.16;nan
66689;BME280;53587;59.318;18.084;2022-08-21T01:02:44;101274.13;;;16.14;nan
66689;BME280;53587;59.318;18.084;2022-08-21T01:05:09;101275.22;;;17.97;nan
66689;BME280;53587;59.318;18.084;2022-08-21T01:07:35;101265.81;;;17.57;nan
66689;BME280;53587;59.318;18.084;2022-08-21T01:10:00;101276.19;;;15.91;nan
66689;BME280;53587;59.318;18.084;2022-08-21T01:12:25;101279.19;;;16.33;nan
66689;BME280;53587;59.318;18.084;2022-08-21T01:14:51;101276.28;;;18.22;nan
66689;BME280;53587;59.318;18.084;2022-08-21T01:17:16;101268.31;;;18.05;nan
66689;BME280;53587;59.318;18.084;2022-08-21T01:19:42;101266.47;;;15.24;nan
66689;BME280;53587;59.318;18.084;2022-08-21T01:22:08;101261.25;;;16.83;nan
66689;BME280;53587;59.318;18.084;2022-08-21T01:24:33;101252.53;;;18.26;nan
66689;BME280;53587;59.318;18.084;2022-08-21T01:26:59;101258.97;;;16.60;nan
66689;BME280;53587;59.318;18.084;2022-08-21T01:29:46;101242.41;;;16.01;nan
66689;BME280;53587;59.318;18.084;2022-08-21T01:32:14;101246.75;;;17.09;nan
66689;BME280;53587;59.318;18.084;2022-08-21T01:34:41;101236.75;;;18.47;nan
66689;BME280;53587;59.318;18.084;2022-08-21T01:37:06;101241.03;;;16.52;nan
66689;BME280;53587;59.318;18.084;2022-08-21T01:39:32;101249.47;;;15.87;nan
66689;BME280;53587;59.318;18.084;2022-08-21T01:41:57;101251.34;;;16.87;nan
66689;BME280;53587;59.318;18.084;2022-08-21T01:44:23;101247.16;;;18.65;nan
66689;BME280;53587;59.318;18.084;2022-08-21T01:46:49;101258.25;;;16.90;nan
66689;BME280;53587;59.318;18.084;2022-08-21T01:49:14;101250.31;;;15.92;nan
66689;BME280;53587;59.318;18.084;2022-08-21T01:51:40;101263.25;;;16.35;nan
66689;BME280;53587;59.318;18.084;2022-08-21T01:54:05;101254.50;;;18.15;nan
66689;BME280;53587;59.318;18.084;2022-08-21T01:56:35;101255.34;;;18.00;nan
66689;BME280;53587;59.318;18.084;2022-08-21T01:59:00;101256.09;;;15.58;nan
66689;BME280;53587;59.318;18.084;2022-08-21T02:01:27;101258.72;;;16.13;nan
66689;BME280;53587;59.318;18.084;2022-08-21T02:03:52;101261.16;;;17.98;nan
66689;BME280;53587;59.318;18.084;2022-08-21T02:06:17;101264.16;;;18.12;nan
66689;BME280;53587;59.318;18.084;2022-08-21T02:08:42;101257.22;;;15.62;nan
66689;BME280;53587;59.318;18.084;2022-08-21T02:11:08;101260.56;;;16.02;nan
66689;BME280;53587;59.318;18.084;2022-08-21T02:13:33;101258.91;;;17.33;nan
66689;BME280;53587;59.318;18.084;2022-08-21T02:15:58;101261.31;;;18.48;nan
66689;BME280;53587;59.318;18.084;2022-08-21T02:18:23;101241.13;;;16.14;nan
66689;BME280;53587;59.318;18.084;2022-08-21T02:20:49;101255.31;;;15.96;nan
66689;BME280;53587;59.318;18.084;2022-08-21T02:23:14;101254.94;;;16.88;nan
66689;BME280;53587;59.318;18.084;2022-08-21T02:25:40;101247.22;;;18.50;nan
66689;BME280;53587;59.318;18.084;2022-08-21T02:28:06;101254.53;;;16.53;nan
66689;BME280;53587;59.318;18.084;2022-08-21T02:30:34;101247.00;;;15.85;nan
66689;BME280;53587;59.318;18.084;2022-08-21T02:32:59;101258.84;;;16.34;nan
66689;BME280;53587;59.318;18.084;2022-08-21T02:35:25;101248.88;;;18.56;nan
66689;BME280;53587;59.318;18.084;2022-08-21T02:37:52;101239.63;;;17.13;nan
66689;BME280;53587;59.318;18.084;2022-08-21T02:40:19;101251.25;;;15.71;nan
66689;BME280;53587;59.318;18.084;2022-08-21T02:42:44;101245.50;;;16.10;nan
66689;BME280;53587;59.318;18.084;2022-08-21T02:45:10;101243.19;;;18.22;nan
66689;BME280;53587;59.318;18.084;2022-08-21T02:47:36;101237.69;;;17.80;nan
66689;BME280;53587;59.318;18.084;2022-08-21T02:50:05;101238.03;;;15.68;nan
66689;BME280;53587;59.318;18.084;2022-08-21T02:52:30;101246.00;;;16.02;nan
66689;BME280;53587;59.318;18.084;2022-08-21T02:54:55;101237.16;;;17.32;nan
66689;BME280;53587;59.318;18.084;2022-08-21T02:57:20;101239.53;;;18.42;nan
66689;BME280;53587;59.318;18.084;2022-08-21T02:59:46;101239.38;;;15.98;nan
66689;BME280;53587;59.318;18.084;2022-08-21T03:02:11;101229.94;;;15.83;nan
66689;BME280;53587;59.318;18.084;2022-08-21T03:04:37;101242.78;;;16.73;nan
66689;BME280;53587;59.318;18.084;2022-08-21T03:07:02;101226.56;;;18.42;nan
66689;BME280;53587;59.318;18.084;2022-08-21T03:09:27;101228.34;;;16.40;nan
66689;BME280;53587;59.318;18.084;2022-08-21T03:11:53;101242.44;;;15.69;nan
66689;BME280;53587;59.318;18.084;2022-08-21T03:14:18;101240.03;;;16.15;nan
66689;BME280;53587;59.318;18.084;2022-08-21T03:16:43;101232.63;;;18.39;nan
66689;BME280;53587;59.318;18.084;2022-08-21T03:19:09;101241.56;;;17.22;nan
66689;BME280;53587;59.318;18.084;2022-08-21T03:21:34;101231.75;;;15.40;nan
66689;BME280;53587;59.318;18.084;2022-08-21T03:23:59;101242.38;;;15.96;nan
66689;BME280;53587;59.318;18.084;2022-08-21T03:26:24;101247.03;;;18.21;nan
66689;BME280;53587;59.318;18.084;2022-08-21T03:28:50;101245.97;;;17.34;nan
66689;BME280;53587;59.318;18.084;2022-08-21T03:31:15;101247.75;;;15.48;nan
66689;BME280;53587;59.318;18.084;2022-08-21T03:33:42;101242.13;;;15.98;nan
66689;BME280;53587;59.318;18.084;2022-08-21T03:36:07;101229.44;;;17.39;nan
66689;BME280;53587;59.318;18.084;2022-08-21T03:38:33;101228.50;;;18.37;nan
66689;BME280;53587;59.318;18.084;2022-08-21T03:40:59;101240.66;;;15.52;nan
66689;BME280;53587;59.318;18.084;2022-08-21T03:43:24;101239.16;;;15.72;nan
66689;BME280;53587;59.318;18.084;2022-08-21T03:45:50;101239.91;;;17.16;nan
66689;BME280;53587;59.318;18.084;2022-08-21T03:48:15;101243.13;;;18.42;nan
66689;BME280;53587;59.318;18.084;2022-08-21T03:50:42;101248.94;;;16.38;nan
66689;BME280;53587;59.318;18.084;2022-08-21T03:53:09;101250.16;;;15.72;nan
66689;BME280;53587;59.318;18.084;2022-08-21T03:55:34;101254.47;;;15.95;nan
66689;BME280;53587;59.318;18.084;2022-08-21T03:57:59;101247.59;;;18.28;nan
66689;BME280;53587;59.318;18.084;2022-08-21T04:00:25;101253.69;;;17.21;nan
66689;BME280;53587;59.318;18.084;2022-08-21T04:02:50;101261.97;;;15.40;nan
66689;BME280;53587;59.318;18.084;2022-08-21T04:05:16;101248.38;;;15.88;nan
66689;BME280;53587;59.318;18.084;2022-08-21T04:07:52;101250.69;;;18.00;nan
66689;BME280;53587;59.318;18.084;2022-08-21T04:10:17;101253.13;;;18.23;nan
66689;BME280;53587;59.318;18.084;2022-08-21T04:12:42;101255.31;;;15.96;nan
66689;BME280;53587;59.318;18.084;2022-08-21T04:15:08;101263.34;;;16.55;nan
66689;BME280;53587;59.318;18.084;2022-08-21T04:17:33;101266.91;;;18.12;nan
66689;BME280;53587;59.318;18.084;2022-08-21T04:19:59;101257.13;;;19.22;nan
66689;BME280;53587;59.318;18.084;2022-08-21T04:22:25;101257.47;;;16.95;nan
66689;BME280;53587;59.318;18.084;2022-08-21T04:24:50;101272.44;;;17.55;nan
66689;BME280;53587;59.318;18.084;2022-08-21T04:27:15;101272.13;;;19.00;nan
66689;BME280;53587;59.318;18.084;2022-08-21T04:29:40;101260.88;;;18.00;nan
66689;BME280;53587;59.318;18.084;2022-08-21T04:32:06;101270.69;;;15.91;nan
66689;BME280;53587;59.318;18.084;2022-08-21T04:34:31;101270.25;;;17.78;nan
66689;BME280;53587;59.318;18.084;2022-08-21T04:36:56;101261.13;;;18.95;nan
66689;BME280;53587;59.318;18.084;2022-08-21T04:39:21;101270.00;;;17.95;nan
66689;BME280;53587;59.318;18.084;2022-08-21T04:41:46;101259.97;;;15.95;nan
66689;BME280;53587;59.318;18.084;2022-08-21T04:44:12;101250.91;;;18.14;nan
66689;BME280;53587;59.318;18.084;2022-08-21T04:46:37;101260.50;;;19.08;nan
66689;BME280;53587;59.318;18.084;2022-08-21T04:49:02;101259.75;;;17.91;nan
66689;BME280;53587;59.318;18.084;2022-08-21T04:51:29;101243.41;;;15.85;nan
66689;BME280;53587;59.318;18.084;2022-08-21T04:53:57;101253.31;;;18.47;nan
66689;BME280;53587;59.318;18.084;2022-08-21T04:58:50;101217.56;;;17.85;nan
66689;BME280;53587;59.318;18.084;2022-08-21T05:01:17;101214.88;;;15.91;nan
66689;BME280;53587;59.318;18.084;2022-08-21T05:03:43;101217.44;;;16.71;nan
66689;BME280;53587;59.318;18.084;2022-08-21T05:06:10;101213.13;;;18.91;nan
66689;BME280;53587;59.318;18.084;2022-08-21T05:08:35;101208.13;;;18.93;nan
66689;BME280;53587;59.318;18.084;2022-08-21T05:11:02;101221.16;;;17.08;nan
66689;BME280;53587;59.318;18.084;2022-08-21T05:13:27;101225.09;;;16.59;nan
66689;BME280;53587;59.318;18.084;2022-08-21T05:15:53;101221.78;;;19.19;nan
66689;BME280;53587;59.318;18.084;2022-08-21T05:18:18;101217.66;;;18.61;nan
66689;BME280;53587;59.318;18.084;2022-08-21T05:20:43;101220.94;;;16.41;nan
66689;BME280;53587;59.318;18.084;2022-08-21T05:23:11;101221.19;;;15.26;nan
66689;BME280;53587;59.318;18.084;2022-08-21T05:25:37;101222.19;;;18.36;nan
66689;BME280;53587;59.318;18.084;2022-08-21T05:28:03;101205.13;;;19.29;nan
66689;BME280;53587;59.318;18.084;2022-08-21T05:30:28;101209.00;;;18.17;nan
66689;BME280;53587;59.318;18.084;2022-08-21T05:33:00;101207.88;;;16.21;nan
66689;BME280;53587;59.318;18.084;2022-08-21T05:35:26;101213.22;;;16.48;nan
66689;BME280;53587;59.318;18.084;2022-08-21T05:37:52;101212.78;;;19.03;nan
66689;BME280;53587;59.318;18.084;2022-08-21T05:40:17;101205.38;;;18.82;nan
66689;BME280;53587;59.318;18.084;2022-08-21T05:42:43;101221.84;;;16.67;nan
66689;BME280;53587;59.318;18.084;2022-08-21T05:45:08;101212.78;;;15.71;nan
66689;BME280;53587;59.318;18.084;2022-08-21T05:47:33;101222.78;;;18.23;nan
66689;BME280;53587;59.318;18.084;2022-08-21T05:49:59;101215.59;;;19.32;nan
66689;BME280;53587;59.318;18.084;2022-08-21T05:52:24;101212.59;;;18.02;nan
66689;BME280;53587;59.318;18.084;2022-08-21T05:54:49;101213.50;;;15.93;nan
66689;BME280;53587;59.318;18.084;2022-08-21T05:57:15;101207.16;;;18.68;nan
66689;BME280;53587;59.318;18.084;2022-08-21T05:59:40;101206.88;;;19.14;nan
66689;BME280;53587;59.318;18.084;2022-08-21T06:02:05;101210.16;;;17.49;nan
66689;BME280;53587;59.318;18.084;2022-08-21T06:04:35;101209.84;;;16.25;nan
66689;BME280;53587;59.318;18.084;2022-08-21T06:07:00;101198.75;;;19.28;nan
66689;BME280;53587;59.318;18.084;2022-08-21T06:09:25;101191.84;;;18.91;nan
66689;BME280;53587;59.318;18.084;2022-08-21T06:11:51;101193.53;;;16.87;nan
66689;BME280;53587;59.318;18.084;2022-08-21T06:14:16;101192.97;;;15.69;nan
66689;BME280;53587;59.318;18.084;2022-08-21T06:16:41;101194.53;;;18.46;nan
66689;BME280;53587;59.318;18.084;2022-08-21T06:19:06;101192.31;;;19.38;nan
66689;BME280;53587;59.318;18.084;2022-08-21T06:21:32;101194.69;;;18.00;nan
66689;BME280;53587;59.318;18.084;2022-08-21T06:23:57;101196.59;;;16.17;nan
66689;BME280;53587;59.318;18.084;2022-08-21T06:26:22;101200.13;;;16.81;nan
66689;BME280;53587;59.318;18.084;2022-08-21T06:28:48;101202.97;;;19.21;nan
66689;BME280;53587;59.318;18.084;2022-08-21T06:31:16;101186.56;;;18.90;nan
66689;BME280;53587;59.318;18.084;2022-08-21T06:33:41;101196.38;;;16.98;nan
66689;BME280;53587;59.318;18.084;2022-08-21T06:36:07;101192.63;;;15.60;nan
66689;BME280;53587;59.318;18.084;2022-08-21T06:38:32;101195.97;;;18.33;nan
66689;BME280;53587;59.318;18.084;2022-08-21T06:40:57;101200.00;;;19.46;nan
66689;BME280;53587;59.318;18.084;2022-08-21T06:43:22;101188.31;;;18.10;nan
66689;BME280;53587;59.318;18.084;2022-08-21T06:45:48;101210.91;;;16.19;nan
66689;BME280;53587;59.318;18.084;2022-08-21T06:48:13;101214.38;;;16.52;nan
66689;BME280;53587;59.318;18.084;2022-08-21T06:50:38;101214.00;;;19.21;nan
66689;BME280;53587;59.318;18.084;2022-08-21T06:53:05;101212.44;;;19.09;nan
66689;BME280;53587;59.318;18.084;2022-08-21T06:55:31;101213.47;;;17.10;nan
66689;BME280;53587;59.318;18.084;2022-08-21T06:57:56;101219.34;;;15.70;nan
66689;BME280;53587;59.318;18.084;2022-08-21T07:00:22;101215.59;;;18.22;nan
66689;BME280;53587;59.318;18.084;2022-08-21T07:02:47;101218.03;;;19.39;nan
66689;BME280;53587;59.318;18.084;2022-08-21T07:05:12;101206.44;;;18.37;nan
66689;BME280;53587;59.318;18.084;2022-08-21T07:07:37;101209.34;;;16.39;nan
66689;BME280;53587;59.318;18.084;2022-08-21T07:10:03;101202.03;;;16.07;nan
66689;BME280;53587;59.318;18.084;2022-08-21T07:12:28;101197.78;;;19.14;nan
66689;BME280;53587;59.318;18.084;2022-08-21T07:14:53;101196.34;;;18.72;nan
66689;BME280;53587;59.318;18.084;2022-08-21T07:17:19;101199.84;;;16.67;nan
66689;BME280;53587;59.318;18.084;2022-08-21T07:19:44;101196.28;;;15.71;nan
66689;BME280;53587;59.318;18.084;2022-08-21T07:22:09;101193.94;;;18.60;nan
66689;BME280;53587;59.318;18.084;2022-08-21T07:24:35;101197.81;;;19.43;nan
66689;BME280;53587;59.318;18.084;2022-08-21T07:27:00;101199.09;;;18.01;nan
66689;BME280;53587;59.318;18.084;2022-08-21T07:29:25;101211.00;;;16.35;nan
66689;BME280;53587;59.318;18.084;2022-08-21T07:31:51;101207.38;;;17.03;nan
66689;BME280;53587;59.318;18.084;2022-08-21T07:34:16;101196.25;;;19.32;nan
66689;BME280;53587;59.318;18.084;2022-08-21T07:36:41;101187.38;;;19.01;nan
66689;BME280;53587;59.318;18.084;2022-08-21T07:39:07;101197.47;;;16.97;nan
66689;BME280;53587;59.318;18.084;2022-08-21T07:41:33;101195.75;;;15.74;nan
66689;BME280;53587;59.318;18.084;2022-08-21T07:43:59;101197.59;;;18.45;nan
66689;BME280;53587;59.318;18.084;2022-08-21T07:46:25;101200.16;;;19.60;nan
66689;BME280;53587;59.318;18.084;2022-08-21T07:48:50;101200.66;;;18.33;nan
66689;BME280;53587;59.318;18.084;2022-08-21T07:51:17;101198.34;;;16.39;nan
66689;BME280;53587;59.318;18.084;2022-08-21T07:53:42;101203.69;;;16.77;nan
66689;BME280;53587;59.318;18.084;2022-08-21T07:56:12;101197.59;;;19.35;nan
66689;BME280;53587;59.318;18.084;2022-08-21T07:58:37;101188.13;;;18.61;nan
66689;BME280;53587;59.318;18.084;2022-08-21T08:01:02;101206.41;;;16.61;nan
66689;BME280;53587;59.318;18.084;2022-08-21T08:03:28;101199.09;;;15.81;nan
66689;BME280;53587;59.318;18.084;2022-08-21T08:05:53;101202.06;;;18.86;nan
66689;BME280;53587;59.318;18.084;2022-08-21T08:08:18;101190.38;;;19.04;nan
66689;BME280;53587;59.318;18.084;2022-08-21T08:10:44;101192.53;;;17.19;nan
66689;BME280;53587;59.318;18.084;2022-08-21T08:13:10;101185.53;;;16.07;nan
66689;BME280;53587;59.318;18.084;2022-08-21T08:15:35;101192.38;;;18.33;nan
66689;BME280;53587;59.318;18.084;2022-08-21T08:18:01;101181.97;;;19.25;nan
66689;BME280;53587;59.318;18.084;2022-08-21T08:20:26;101188.63;;;17.93;nan
66689;BME280;53587;59.318;18.084;2022-08-21T08:22:52;101181.75;;;16.18;nan
66689;BME280;53587;59.318;18.084;2022-08-21T08:25:17;101186.22;;;17.14;nan
66689;BME280;53587;59.318;18.084;2022-08-21T08:27:43;101181.84;;;19.35;nan
66689;BME280;53587;59.318;18.084;2022-08-21T08:30:10;101179.38;;;18.99;nan
66689;BME280;53587;59.318;18.084;2022-08-21T08:32:35;101188.59;;;16.84;nan
66689;BME280;53587;59.318;18.084;2022-08-21T08:35:01;101181.97;;;16.06;nan
66689;BME280;53587;59.318;18.084;2022-08-21T08:37:26;101179.50;;;18.73;nan
66689;BME280;53587;59.318;18.084;2022-08-21T08:39:52;101185.31;;;19.17;nan
66689;BME280;53587;59.318;18.084;2022-08-21T08:42:23;101169.38;;;17.62;nan
66689;BME280;53587;59.318;18.084;2022-08-21T08:44:50;101178.97;;;16.13;nan
66689;BME280;53587;59.318;18.084;2022-08-21T08:47:20;101189.06;;;18.31;nan
66689;BME280;53587;59.318;18.084;2022-08-21T08:49:48;101189.75;;;19.47;nan
66689;BME280;53587;59.318;18.084;2022-08-21T08:52:18;101190.81;;;18.11;nan
66689;BME280;53587;59.318;18.084;2022-08-21T08:54:47;101195.47;;;16.13;nan
66689;BME280;53587;59.318;18.084;2022-08-21T08:57:16;101193.09;;;17.52;nan
66689;BME280;53587;59.318;18.084;2022-08-21T08:59:43;101204.91;;;19.20;nan
66689;BME280;53587;59.318;18.084;2022-08-21T09:02:11;101202.28;;;18.39;nan
66689;BME280;53587;59.318;18.084;2022-08-21T09:04:36;101189.03;;;16.45;nan
66689;BME280;53587;59.318;18.084;2022-08-21T09:07:08;101188.28;;;16.02;nan
66689;BME280;53587;59.318;18.084;2022-08-21T09:12:17;101184.41;;;18.81;nan
66689;BME280;53587;59.318;18.084;2022-08-21T09:17:29;101189.31;;;15.90;nan
66689;BME280;53587;59.318;18.084;2022-08-21T09:22:42;101181.16;;;18.69;nan
66689;BME280;53587;59.318;18.084;2022-08-21T09:25:24;101188.00;;;16.67;nan
66689;BME280;53587;59.318;18.084;2022-08-21T09:27:50;101201.44;;;16.00;nan
66689;BME280;53587;59.318;18.084;2022-08-21T09:30:15;101201.59;;;19.18;nan
66689;BME280;53587;59.318;18.084;2022-08-21T09:32:41;101192.91;;;19.01;nan
66689;BME280;53587;59.318;18.084;2022-08-21T09:37:34;101197.09;;;16.04;nan
66689;BME280;53587;59.318;18.084;2022-08-21T09:40:00;101196.09;;;18.63;nan
66689;BME280;53587;59.318;18.084;2022-08-21T09:42:27;101194.63;;;19.26;nan
66689;BME280;53587;59.318;18.084;2022-08-21T09:45:08;101192.53;;;17.71;nan
66689;BME280;53587;59.318;18.084;2022-08-21T09:47:34;101202.44;;;16.26;nan
66689;BME280;53587;59.318;18.084;2022-08-21T09:52:56;101191.63;;;19.22;nan
66689;BME280;53587;59.318;18.084;2022-08-21T09:55:28;101182.63;;;17.60;nan
66689;BME280;53587;59.318;18.084;2022-08-21T09:58:14;101194.38;;;16.09;nan
66689;BME280;53587;59.318;18.084;2022-08-21T10:00:40;101204.19;;;18.49;nan
66689;BME280;53587;59.318;18.084;2022-08-21T10:03:19;101193.53;;;19.27;nan
66689;BME280;53587;59.318;18.084;2022-08-21T10:08:17;101199.41;;;16.28;nan
66689;BME280;53587;59.318;18.084;2022-08-21T10:10:42;101201.00;;;18.16;nan
66689;BME280;53587;59.318;18.084;2022-08-21T10:13:16;101192.25;;;19.49;nan
66689;BME280;53587;59.318;18.084;2022-08-21T10:29:28;101191.78;;;16.50;nan
66689;BME280;53587;59.318;18.084;2022-08-21T10:37:04;101185.59;;;17.84;nan
66689;BME280;53587;59.318;18.084;2022-08-21T10:39:34;101192.81;;;16.29;nan
66689;BME280;53587;59.318;18.084;2022-08-21T10:52:26;101194.72;;;17.79;nan
66689;BME280;53587;59.318;18.084;2022-08-21T11:00:05;101188.41;;;16.33;nan
66689;BME280;53587;59.318;18.084;2022-08-21T11:02:35;101190.88;;;17.60;nan
66689;BME280;53587;59.318;18.084;2022-08-21T11:05:06;101189.69;;;19.23;nan
66689;BME280;53587;59.318;18.084;2022-08-21T11:07:36;101193.19;;;18.39;nan
66689;BME280;53587;59.318;18.084;2022-08-21T11:10:08;101194.81;;;16.54;nan
66689;BME280;53587;59.318;18.084;2022-08-21T11:15:04;101189.31;;;19.35;nan
66689;BME280;53587;59.318;18.084;2022-08-21T11:17:49;101186.44;;;18.71;nan
66689;BME280;53587;59.318;18.084;2022-08-21T11:20:38;101191.84;;;16.66;nan
66689;BME280;53587;59.318;18.084;2022-08-21T11:26:00;101188.53;;;19.29;nan
66689;BME280;53587;59.318;18.084;2022-08-21T11:28:31;101191.78;;;18.46;nan
66689;BME280;53587;59.318;18.084;2022-08-21T11:31:17;101188.22;;;16.50;nan
66689;BME280;53587;59.318;18.084;2022-08-21T11:33:52;101195.84;;;17.52;nan
66689;BME280;53587;59.318;18.084;2022-08-21T11:39:06;101192.00;;;18.55;nan
66689;BME280;53587;59.318;18.084;2022-08-21T11:41:37;101193.44;;;16.51;nan
66689;BME280;53587;59.318;18.084;2022-08-21T11:51:53;101204.75;;;16.60;nan
66689;BME280;53587;59.318;18.084;2022-08-21T11:54:29;101213.03;;;16.65;nan
66689;BME280;53587;59.318;18.084;2022-08-21T11:56:59;101201.69;;;19.42;nan
66689;BME280;53587;59.318;18.084;2022-08-21T11:59:39;101210.75;;;18.63;nan
66689;BME280;53587;59.318;18.084;2022-08-21T12:02:07;101215.78;;;16.65;nan
66689;BME280;53587;59.318;18.084;2022-08-21T12:04:36;101211.97;;;16.13;nan
66689;BME280;53587;59.318;18.084;2022-08-21T12:07:14;101205.38;;;19.33;nan
66689;BME280;53587;59.318;18.084;2022-08-21T12:09:51;101197.94;;;18.83;nan
66689;BME280;53587;59.318;18.084;2022-08-21T12:12:24;101201.78;;;16.67;nan
66689;BME280;53587;59.318;18.084;2022-08-21T12:14:51;101203.06;;;15.90;nan
66689;BME280;53587;59.318;18.084;2022-08-21T12:17:18;101196.94;;;19.13;nan
66689;BME280;53587;59.318;18.084;2022-08-21T12:19:44;101192.25;;;19.14;nan
66689;BME280;53587;59.318;18.084;2022-08-21T12:22:10;101200.50;;;17.05;nan
66689;BME280;53587;59.318;18.084;2022-08-21T12:24:37;101197.72;;;16.16;nan
66689;BME280;53587;59.318;18.084;2022-08-21T12:27:21;101197.72;;;18.69;nan
66689;BME280;53587;59.318;18.084;2022-08-21T12:29:52;101196.38;;;19.17;nan
66689;BME280;53587;59.318;18.084;2022-08-21T12:37:37;101194.44;;;18.67;nan
66689;BME280;53587;59.318;18.084;2022-08-21T12:40:09;101202.44;;;19.19;nan
66689;BME280;53587;59.318;18.084;2022-08-21T12:42:39;101188.94;;;17.39;nan
66689;BME280;53587;59.318;18.084;2022-08-21T12:45:30;101204.78;;;16.07;nan
66689;BME280;53587;59.318;18.084;2022-08-21T12:47:55;101199.47;;;18.55;nan
66689;BME280;53587;59.318;18.084;2022-08-21T12:50:41;101191.41;;;19.19;nan
66689;BME280;53587;59.318;18.084;2022-08-21T12:53:29;101191.16;;;17.27;nan
66689;BME280;53587;59.318;18.084;2022-08-21T12:55:55;101191.91;;;16.13;nan
66689;BME280;53587;59.318;18.084;2022-08-21T12:58:26;101193.31;;;18.73;nan
66689;BME280;53587;59.318;18.084;2022-08-21T13:00:56;101195.22;;;19.23;nan
66689;BME280;53587;59.318;18.084;2022-08-21T13:03:22;101198.03;;;17.55;nan
66689;BME280;53587;59.318;18.084;2022-08-21T13:05:48;101194.13;;;16.16;nan
66689;BME280;53587;59.318;18.084;2022-08-21T13:08:16;101199.59;;;18.18;nan
66689;BME280;53587;59.318;18.084;2022-08-21T13:10:41;101195.00;;;19.49;nan
66689;BME280;53587;59.318;18.084;2022-08-21T13:13:17;101194.34;;;18.27;nan
66689;BME280;53587;59.318;18.084;2022-08-21T13:15:45;101195.09;;;16.47;nan
66689;BME280;53587;59.318;18.084;2022-08-21T13:18:19;101198.03;;;17.25;nan
66689;BME280;53587;59.318;18.084;2022-08-21T13:20:44;101184.13;;;19.28;nan
66689;BME280;53587;59.318;18.084;2022-08-21T13:25:44;101185.16;;;16.41;nan
66689;BME280;53587;59.318;18.084;2022-08-21T13:28:10;101193.28;;;16.15;nan
66689;BME280;53587;59.318;18.084;2022-08-21T13:31:10;101183.63;;;19.21;nan
66689;BME280;53587;59.318;18.084;2022-08-21T13:33:29;101191.50;;;18.48;nan
66689;BME280;53587;59.318;18.084;2022-08-21T13:38:29;101196.41;;;15.86;nan
66689;BME280;53587;59.318;18.084;2022-08-21T13:40:56;101192.81;;;19.11;nan
66689;BME280;53587;59.318;18.084;2022-08-21T13:43:25;101186.53;;;19.00;nan
66689;BME280;53587;59.318;18.084;2022-08-21T13:45:53;101191.41;;;16.95;nan
66689;BME280;53587;59.318;18.084;2022-08-21T13:48:18;101192.59;;;15.92;nan
66689;BME280;53587;59.318;18.084;2022-08-21T13:50:44;101175.69;;;18.64;nan
66689;BME280;53587;59.318;18.084;2022-08-21T13:53:26;101189.19;;;19.15;nan
66689;BME280;53587;59.318;18.084;2022-08-21T13:55:52;101186.47;;;17.17;nan
66689;BME280;53587;59.318;18.084;2022-08-21T13:58:51;101182.81;;;16.07;nan
66689;BME280;53587;59.318;18.084;2022-08-21T14:01:28;101184.03;;;18.54;nan
66689;BME280;53587;59.318;18.084;2022-08-21T14:03:57;101184.00;;;19.09;nan
66689;BME280;53587;59.318;18.084;2022-08-21T14:06:26;101179.03;;;17.33;nan
66689;BME280;53587;59.318;18.084;2022-08-21T14:08:57;101192.72;;;16.13;nan
66689;BME280;53587;59.318;18.084;2022-08-21T14:11:24;101179.13;;;18.40;nan
66689;BME280;53587;59.318;18.084;2022-08-21T14:13:55;101175.84;;;19.28;nan
66689;BME280;53587;59.318;18.084;2022-08-21T14:16:25;101183.41;;;17.81;nan
66689;BME280;53587;59.318;18.084;2022-08-21T14:21:27;101180.38;;;17.93;nan
66689;BME280;53587;59.318;18.084;2022-08-21T14:24:01;101173.28;;;19.37;nan